sensor_id;sensor_type;location;lat;lon;timestamp;pressure;altitude;pressure_sealevel;temperature;humidity
7888;BME280;3989;48.810;9.208;2024-01-30T09:43:47;100141.06;;;6.12;100.00
7888;BME280;3989;48.810;9.208;2024-01-30T09:46:17;100182.09;;;6.30;100.00
7888;BME280;3989;48.810;9.208;2024-01-30T09:48:46;100112.28;;;6.07;100.00
7888;BME280;3989;48.810;9.208;2024-01-30T09:51:18;100272.56;;;7.05;100.00
7888;BME280;3989;48.810;9.208;2024-01-30T09:53:47;100200.69;;;6.74;100.00
7888;BME280;3989;48.810;9.208;2024-01-30T09:56:16;100275.72;;;7.21;100.00
7888;BME280;3989;48.810;9.208;2024-01-30T09:58:45;100176.56;;;6.66;100.00
7888;BME280;3989;48.810;9.208;2024-01-30T10:01:14;100192.72;;;6.97;100.00
7888;BME280;3989;48.810;9.208;2024-01-30T10:03:45;100269.53;;;7.54;100.00
7888;BME280;3989;48.810;9.208;2024-01-30T10:06:13;100216.56;;;7.41;100.00
7888;BME280;3989;48.810;9.208;2024-01-30T10:08:42;100264.25;;;7.85;100.00
7888;BME280;3989;48.810;9.208;2024-01-30T10:11:09;100271.84;;;8.01;100.00
7888;BME280;3989;48.810;9.208;2024-01-30T10:13:36;100258.22;;;8.15;100.00
7888;BME280;3989;48.810;9.208;2024-01-30T10:16:06;100209.38;;;7.96;100.00
7888;BME280;3989;48.810;9.208;2024-01-30T10:18:33;100262.50;;;8.38;100.00
7888;BME280;3989;48.810;9.208;2024-01-30T10:21:01;100169.00;;;7.70;100.00
7888;BME280;3989;48.810;9.208;2024-01-30T10:23:29;100252.31;;;8.43;100.00
7888;BME280;3989;48.810;9.208;2024-01-30T10:25:56;100245.13;;;8.55;100.00
7888;BME280;3989;48.810;9.208;2024-01-30T10:28:26;100213.78;;;8.38;100.00
7888;BME280;3989;48.810;9.208;2024-01-30T10:30:58;100154.25;;;8.18;100.00
7888;BME280;3989;48.810;9.208;2024-01-30T10:33:27;100189.88;;;8.48;100.00
7888;BME280;3989;48.810;9.208;2024-01-30T10:35:57;100244.88;;;8.58;100.00
7888;BME280;3989;48.810;9.208;2024-01-30T10:38:29;100219.22;;;8.57;100.00
7888;BME280;3989;48.810;9.208;2024-01-30T10:40:56;100089.81;;;7.84;100.00
7888;BME280;3989;48.810;9.208;2024-01-30T10:43:29;100232.31;;;8.70;100.00
7888;BME280;3989;48.810;9.208;2024-01-30T10:46:10;100216.59;;;8.67;100.00
7888;BME280;3989;48.810;9.208;2024-01-30T10:48:42;100245.88;;;8.87;100.00
7888;BME280;3989;48.810;9.208;2024-01-30T10:51:11;100042.78;;;7.75;100.00
7888;BME280;3989;48.810;9.208;2024-01-30T10:53:41;100234.88;;;9.11;100.00
7888;BME280;3989;48.810;9.208;2024-01-30T10:56:12;100227.06;;;9.10;100.00
7888;BME280;3989;48.810;9.208;2024-01-30T10:58:40;100052.47;;;8.07;100.00
7888;BME280;3989;48.810;9.208;2024-01-30T11:01:07;100137.00;;;8.54;100.00
7888;BME280;3989;48.810;9.208;2024-01-30T11:03:37;100040.75;;;8.19;100.00
7888;BME280;3989;48.810;9.208;2024-01-30T11:06:10;100223.53;;;9.49;100.00
7888;BME280;3989;48.810;9.208;2024-01-30T11:08:40;100037.03;;;8.61;98.20
7888;BME280;3989;48.810;9.208;2024-01-30T11:11:09;99954.63;;;8.40;93.00
7888;BME280;3989;48.810;9.208;2024-01-30T11:13:36;100212.50;;;10.01;92.10
7888;BME280;3989;48.810;9.208;2024-01-30T11:16:04;100044.97;;;9.20;92.48
7888;BME280;3989;48.810;9.208;2024-01-30T11:18:35;100209.00;;;9.82;93.26
7888;BME280;3989;48.810;9.208;2024-01-30T11:21:06;100038.63;;;9.02;94.40
7888;BME280;3989;48.810;9.208;2024-01-30T11:23:34;100127.03;;;9.74;89.53
7888;BME280;3989;48.810;9.208;2024-01-30T11:26:04;100130.53;;;9.65;82.34
7888;BME280;3989;48.810;9.208;2024-01-30T11:28:32;100210.53;;;10.32;84.16
7888;BME280;3989;48.810;9.208;2024-01-30T11:31:04;100219.22;;;10.44;86.98
7888;BME280;3989;48.810;9.208;2024-01-30T11:33:32;100122.25;;;9.97;85.00
7888;BME280;3989;48.810;9.208;2024-01-30T11:36:00;100205.31;;;10.40;85.98
7888;BME280;3989;48.810;9.208;2024-01-30T11:38:29;100194.91;;;10.47;86.89
7888;BME280;3989;48.810;9.208;2024-01-30T11:40:56;100204.88;;;10.54;86.96
7888;BME280;3989;48.810;9.208;2024-01-30T11:43:24;100172.59;;;10.48;85.64
7888;BME280;3989;48.810;9.208;2024-01-30T11:45:51;100122.38;;;10.15;80.62
7888;BME280;3989;48.810;9.208;2024-01-30T11:48:18;100082.25;;;9.97;83.69
7888;BME280;3989;48.810;9.208;2024-01-30T11:50:45;100197.75;;;10.92;84.15
7888;BME280;3989;48.810;9.208;2024-01-30T11:53:13;100194.00;;;10.75;80.08
7888;BME280;3989;48.810;9.208;2024-01-30T11:55:41;100141.41;;;10.48;82.51
7888;BME280;3989;48.810;9.208;2024-01-30T11:58:08;100145.28;;;10.64;76.84
7888;BME280;3989;48.810;9.208;2024-01-30T12:00:35;100177.50;;;10.89;76.76
7888;BME280;3989;48.810;9.208;2024-01-30T12:03:03;100100.03;;;10.25;79.63
7888;BME280;3989;48.810;9.208;2024-01-30T12:05:32;100131.50;;;10.68;78.81
7888;BME280;3989;48.810;9.208;2024-01-30T12:07:59;100020.03;;;10.16;78.18
7888;BME280;3989;48.810;9.208;2024-01-30T12:10:26;100104.00;;;10.58;79.08
7888;BME280;3989;48.810;9.208;2024-01-30T12:12:56;100094.50;;;10.73;74.47
7888;BME280;3989;48.810;9.208;2024-01-30T12:15:24;100174.63;;;11.28;74.98
7888;BME280;3989;48.810;9.208;2024-01-30T12:17:51;100134.06;;;10.87;75.11
7888;BME280;3989;48.810;9.208;2024-01-30T12:20:19;99869.06;;;9.59;74.33
7888;BME280;3989;48.810;9.208;2024-01-30T12:22:48;100003.63;;;10.65;75.08
7888;BME280;3989;48.810;9.208;2024-01-30T12:25:16;100161.38;;;11.53;70.28
7888;BME280;3989;48.810;9.208;2024-01-30T12:27:44;100134.88;;;11.42;70.86
7888;BME280;3989;48.810;9.208;2024-01-30T12:30:13;100155.44;;;11.59;68.90
7888;BME280;3989;48.810;9.208;2024-01-30T12:32:41;100051.66;;;10.92;71.48
7888;BME280;3989;48.810;9.208;2024-01-30T12:35:10;100082.25;;;11.07;71.09
7888;BME280;3989;48.810;9.208;2024-01-30T12:37:38;99899.25;;;10.23;69.13
7888;BME280;3989;48.810;9.208;2024-01-30T12:40:07;100055.59;;;11.16;69.28
7888;BME280;3989;48.810;9.208;2024-01-30T12:42:35;100151.34;;;11.83;68.80
7888;BME280;3989;48.810;9.208;2024-01-30T12:45:02;100089.50;;;11.33;68.22
7888;BME280;3989;48.810;9.208;2024-01-30T12:47:32;100145.56;;;11.60;67.29
7888;BME280;3989;48.810;9.208;2024-01-30T12:49:59;99998.97;;;10.67;68.62
7888;BME280;3989;48.810;9.208;2024-01-30T12:52:26;100108.91;;;11.35;68.70
7888;BME280;3989;48.810;9.208;2024-01-30T12:54:54;100009.97;;;10.37;68.20
7888;BME280;3989;48.810;9.208;2024-01-30T12:57:21;99994.69;;;10.57;68.97
7888;BME280;3989;48.810;9.208;2024-01-30T12:59:48;100164.13;;;11.71;68.06
7888;BME280;3989;48.810;9.208;2024-01-30T13:02:16;100029.25;;;11.03;67.99
7888;BME280;3989;48.810;9.208;2024-01-30T13:04:44;100153.66;;;11.78;68.19
7888;BME280;3989;48.810;9.208;2024-01-30T13:07:11;100150.53;;;11.82;68.23
7888;BME280;3989;48.810;9.208;2024-01-30T13:09:38;100156.19;;;11.70;72.08
7888;BME280;3989;48.810;9.208;2024-01-30T13:12:06;100179.25;;;11.80;71.44
7888;BME280;3989;48.810;9.208;2024-01-30T13:14:33;100150.66;;;11.81;69.47
7888;BME280;3989;48.810;9.208;2024-01-30T13:17:03;100079.06;;;11.39;69.87
7888;BME280;3989;48.810;9.208;2024-01-30T13:19:30;100156.25;;;11.87;73.76
7888;BME280;3989;48.810;9.208;2024-01-30T13:21:59;100166.19;;;11.77;75.38
7888;BME280;3989;48.810;9.208;2024-01-30T13:24:26;100159.28;;;11.92;74.93
7888;BME280;3989;48.810;9.208;2024-01-30T13:26:53;100106.72;;;11.66;75.44
7888;BME280;3989;48.810;9.208;2024-01-30T13:29:20;100157.97;;;11.96;71.12
7888;BME280;3989;48.810;9.208;2024-01-30T13:31:47;100082.63;;;11.66;69.65
7888;BME280;3989;48.810;9.208;2024-01-30T13:34:14;100088.38;;;11.71;70.61
7888;BME280;3989;48.810;9.208;2024-01-30T13:36:41;100121.44;;;11.70;72.00
7888;BME280;3989;48.810;9.208;2024-01-30T13:39:10;100144.16;;;11.83;73.57
7888;BME280;3989;48.810;9.208;2024-01-30T13:41:38;100105.84;;;11.47;73.32
7888;BME280;3989;48.810;9.208;2024-01-30T13:44:05;100147.13;;;11.80;75.31
7888;BME280;3989;48.810;9.208;2024-01-30T13:46:32;100096.16;;;11.46;78.00
7888;BME280;3989;48.810;9.208;2024-01-30T13:48:58;100134.38;;;11.74;76.74
7888;BME280;3989;48.810;9.208;2024-01-30T13:51:26;100115.34;;;11.59;76.65
7888;BME280;3989;48.810;9.208;2024-01-30T13:53:53;100147.84;;;11.82;76.96
7888;BME280;3989;48.810;9.208;2024-01-30T13:56:22;99930.09;;;10.53;77.13
7888;BME280;3989;48.810;9.208;2024-01-30T13:58:50;100134.69;;;11.89;76.49
7888;BME280;3989;48.810;9.208;2024-01-30T14:01:17;99968.28;;;10.98;77.60
7888;BME280;3989;48.810;9.208;2024-01-30T14:03:45;100081.13;;;11.63;77.97
7888;BME280;3989;48.810;9.208;2024-01-30T14:06:12;100046.13;;;11.39;80.09
7888;BME280;3989;48.810;9.208;2024-01-30T14:08:39;100146.59;;;11.94;81.77
7888;BME280;3989;48.810;9.208;2024-01-30T14:11:09;99963.34;;;10.76;82.30
7888;BME280;3989;48.810;9.208;2024-01-30T14:13:37;100154.84;;;11.83;83.92
7888;BME280;3989;48.810;9.208;2024-01-30T14:16:05;100056.59;;;11.15;85.03
7888;BME280;3989;48.810;9.208;2024-01-30T14:18:32;100157.28;;;11.59;87.43
7888;BME280;3989;48.810;9.208;2024-01-30T14:20:59;100142.28;;;11.48;90.30
7888;BME280;3989;48.810;9.208;2024-01-30T14:23:26;100157.66;;;11.46;94.66
7888;BME280;3989;48.810;9.208;2024-01-30T14:25:53;100154.44;;;11.43;96.59
7888;BME280;3989;48.810;9.208;2024-01-30T14:28:20;100147.91;;;11.28;98.75
7888;BME280;3989;48.810;9.208;2024-01-30T14:30:48;100065.59;;;10.69;100.00
7888;BME280;3989;48.810;9.208;2024-01-30T14:33:15;100155.41;;;11.24;100.00
7888;BME280;3989;48.810;9.208;2024-01-30T14:35:42;100156.53;;;11.22;100.00
7888;BME280;3989;48.810;9.208;2024-01-30T14:38:09;99970.31;;;10.05;100.00
7888;BME280;3989;48.810;9.208;2024-01-30T14:40:39;100154.97;;;11.01;100.00
7888;BME280;3989;48.810;9.208;2024-01-30T14:43:07;100163.16;;;10.90;100.00
7888;BME280;3989;48.810;9.208;2024-01-30T14:45:34;100055.53;;;10.16;100.00
7888;BME280;3989;48.810;9.208;2024-01-30T14:48:03;100050.03;;;10.08;100.00
7888;BME280;3989;48.810;9.208;2024-01-30T14:50:30;100029.63;;;9.80;100.00
7888;BME280;3989;48.810;9.208;2024-01-30T14:52:57;99854.38;;;8.70;100.00
7888;BME280;3989;48.810;9.208;2024-01-30T14:55:24;100027.84;;;9.71;100.00
7888;BME280;3989;48.810;9.208;2024-01-30T14:57:51;100081.81;;;9.92;100.00
7888;BME280;3989;48.810;9.208;2024-01-30T15:00:19;100159.13;;;10.40;100.00
7888;BME280;3989;48.810;9.208;2024-01-30T15:02:47;100182.41;;;10.47;100.00
7888;BME280;3989;48.810;9.208;2024-01-30T15:05:15;100123.50;;;10.02;100.00
7888;BME280;3989;48.810;9.208;2024-01-30T15:07:43;100090.97;;;9.70;100.00
7888;BME280;3989;48.810;9.208;2024-01-30T15:10:10;99959.03;;;8.80;100.00
7888;BME280;3989;48.810;9.208;2024-01-30T15:12:37;100178.53;;;10.03;100.00
7888;BME280;3989;48.810;9.208;2024-01-30T15:15:07;100194.53;;;9.94;100.00
7888;BME280;3989;48.810;9.208;2024-01-30T15:17:34;100167.16;;;9.73;100.00
7888;BME280;3989;48.810;9.208;2024-01-30T15:20:01;100145.81;;;9.54;100.00
7888;BME280;3989;48.810;9.208;2024-01-30T15:22:30;100144.28;;;9.51;100.00
7888;BME280;3989;48.810;9.208;2024-01-30T15:24:57;100002.13;;;8.55;100.00
7888;BME280;3989;48.810;9.208;2024-01-30T15:27:24;100037.88;;;8.62;100.00
7888;BME280;3989;48.810;9.208;2024-01-30T15:29:51;99921.66;;;7.82;100.00
7888;BME280;3989;48.810;9.208;2024-01-30T15:32:18;99932.28;;;7.82;100.00
7888;BME280;3989;48.810;9.208;2024-01-30T15:35:00;100219.44;;;9.45;100.00
7888;BME280;3989;48.810;9.208;2024-01-30T15:37:51;100206.78;;;9.28;100.00
7888;BME280;3989;48.810;9.208;2024-01-30T15:40:18;100224.44;;;9.29;100.00
7888;BME280;3989;48.810;9.208;2024-01-30T15:42:46;100029.63;;;8.04;100.00
7888;BME280;3989;48.810;9.208;2024-01-30T15:45:13;100006.31;;;7.87;100.00
7888;BME280;3989;48.810;9.208;2024-01-30T15:47:46;100124.91;;;8.50;100.00
7888;BME280;3989;48.810;9.208;2024-01-30T15:50:16;100216.75;;;8.95;100.00
7888;BME280;3989;48.810;9.208;2024-01-30T15:53:01;100039.78;;;7.69;100.00
7888;BME280;3989;48.810;9.208;2024-01-30T15:55:28;100137.34;;;8.19;100.00
7888;BME280;3989;48.810;9.208;2024-01-30T15:57:55;100232.25;;;8.60;100.00
7888;BME280;3989;48.810;9.208;2024-01-30T16:00:22;100186.56;;;8.14;100.00
7888;BME280;3989;48.810;9.208;2024-01-30T16:02:49;100054.00;;;7.26;100.00
7888;BME280;3989;48.810;9.208;2024-01-30T16:05:16;100234.38;;;8.25;100.00
7888;BME280;3989;48.810;9.208;2024-01-30T16:07:46;100057.03;;;7.22;100.00
7888;BME280;3989;48.810;9.208;2024-01-30T16:10:15;100249.72;;;8.32;100.00
7888;BME280;3989;48.810;9.208;2024-01-30T16:12:42;100148.59;;;7.70;100.00
7888;BME280;3989;48.810;9.208;2024-01-30T16:15:11;100145.66;;;7.53;100.00
7888;BME280;3989;48.810;9.208;2024-01-30T16:17:38;100105.66;;;7.22;100.00
7888;BME280;3989;48.810;9.208;2024-01-30T16:20:07;100198.56;;;7.76;100.00
7888;BME280;3989;48.810;9.208;2024-01-30T16:22:34;100171.22;;;7.54;100.00
7888;BME280;3989;48.810;9.208;2024-01-30T16:25:01;100204.31;;;7.61;100.00
7888;BME280;3989;48.810;9.208;2024-01-30T16:27:31;100207.22;;;7.58;100.00
7888;BME280;3989;48.810;9.208;2024-01-30T16:29:58;100260.28;;;7.80;100.00
7888;BME280;3989;48.810;9.208;2024-01-30T16:32:25;100259.34;;;7.70;100.00
7888;BME280;3989;48.810;9.208;2024-01-30T16:34:56;100253.34;;;7.57;100.00
7888;BME280;3989;48.810;9.208;2024-01-30T16:37:24;100196.69;;;7.13;100.00
7888;BME280;3989;48.810;9.208;2024-01-30T16:39:51;100225.03;;;7.24;100.00
7888;BME280;3989;48.810;9.208;2024-01-30T16:42:18;100148.34;;;6.76;100.00
7888;BME280;3989;48.810;9.208;2024-01-30T16:44:47;100247.34;;;7.32;100.00
7888;BME280;3989;48.810;9.208;2024-01-30T16:47:14;100129.41;;;6.48;100.00
7888;BME280;3989;48.810;9.208;2024-01-30T16:49:42;100064.09;;;6.13;100.00
7888;BME280;3989;48.810;9.208;2024-01-30T16:52:09;100286.69;;;7.27;100.00
7888;BME280;3989;48.810;9.208;2024-01-30T16:54:36;100265.69;;;7.24;100.00
7888;BME280;3989;48.810;9.208;2024-01-30T16:57:04;100270.16;;;7.24;100.00
7888;BME280;3989;48.810;9.208;2024-01-30T16:59:31;100090.47;;;6.26;100.00
7888;BME280;3989;48.810;9.208;2024-01-30T17:01:59;100187.41;;;6.74;100.00
7888;BME280;3989;48.810;9.208;2024-01-30T17:04:27;100081.78;;;6.13;100.00
7888;BME280;3989;48.810;9.208;2024-01-30T17:06:53;100234.47;;;6.95;100.00
7888;BME280;3989;48.810;9.208;2024-01-30T17:09:21;100231.31;;;6.90;100.00
7888;BME280;3989;48.810;9.208;2024-01-30T17:11:48;100153.63;;;6.32;100.00
7888;BME280;3989;48.810;9.208;2024-01-30T17:14:15;100232.41;;;6.87;100.00
7888;BME280;3989;48.810;9.208;2024-01-30T17:16:43;100254.00;;;6.94;100.00
7888;BME280;3989;48.810;9.208;2024-01-30T17:19:13;100235.91;;;6.88;100.00
7888;BME280;3989;48.810;9.208;2024-01-30T17:21:40;100243.88;;;6.99;100.00
7888;BME280;3989;48.810;9.208;2024-01-30T17:24:10;100270.28;;;7.11;100.00
7888;BME280;3989;48.810;9.208;2024-01-30T17:26:37;100287.06;;;7.12;100.00
7888;BME280;3989;48.810;9.208;2024-01-30T17:29:05;100122.63;;;6.10;100.00
7888;BME280;3989;48.810;9.208;2024-01-30T17:31:34;100168.44;;;6.34;100.00
7888;BME280;3989;48.810;9.208;2024-01-30T17:34:18;100197.50;;;6.36;100.00
7888;BME280;3989;48.810;9.208;2024-01-30T17:36:45;100238.06;;;6.71;100.00
7888;BME280;3989;48.810;9.208;2024-01-30T17:39:12;100304.56;;;7.03;100.00
7888;BME280;3989;48.810;9.208;2024-01-30T17:41:42;100191.13;;;6.39;100.00
7888;BME280;3989;48.810;9.208;2024-01-30T17:44:09;100243.72;;;6.67;100.00
7888;BME280;3989;48.810;9.208;2024-01-30T17:46:39;100300.81;;;7.06;100.00
7888;BME280;3989;48.810;9.208;2024-01-30T17:49:07;100257.63;;;6.81;100.00
7888;BME280;3989;48.810;9.208;2024-01-30T17:51:43;100288.66;;;7.03;100.00
7888;BME280;3989;48.810;9.208;2024-01-30T17:54:10;100301.81;;;7.16;100.00
7888;BME280;3989;48.810;9.208;2024-01-30T17:56:37;100272.34;;;6.97;100.00
7888;BME280;3989;48.810;9.208;2024-01-30T17:59:04;100215.25;;;6.69;100.00
7888;BME280;3989;48.810;9.208;2024-01-30T18:01:31;100221.66;;;6.66;100.00
7888;BME280;3989;48.810;9.208;2024-01-30T18:06:34;100171.31;;;6.20;100.00
7888;BME280;3989;48.810;9.208;2024-01-30T18:09:06;100194.81;;;6.25;100.00
7888;BME280;3989;48.810;9.208;2024-01-30T18:11:34;100260.69;;;6.53;100.00
7888;BME280;3989;48.810;9.208;2024-01-30T18:14:03;100309.84;;;6.92;100.00
7888;BME280;3989;48.810;9.208;2024-01-30T18:16:30;100299.84;;;6.84;100.00
7888;BME280;3989;48.810;9.208;2024-01-30T18:19:00;100204.47;;;6.26;100.00
7888;BME280;3989;48.810;9.208;2024-01-30T18:21:28;100282.19;;;6.61;100.00
7888;BME280;3989;48.810;9.208;2024-01-30T18:23:55;100273.88;;;6.66;100.00
7888;BME280;3989;48.810;9.208;2024-01-30T18:26:28;100148.88;;;5.78;100.00
7888;BME280;3989;48.810;9.208;2024-01-30T18:29:02;100189.00;;;5.98;100.00
7888;BME280;3989;48.810;9.208;2024-01-30T18:31:32;100310.81;;;6.80;100.00
7888;BME280;3989;48.810;9.208;2024-01-30T18:34:06;100243.69;;;6.45;100.00
7888;BME280;3989;48.810;9.208;2024-01-30T18:36:53;100295.97;;;6.77;100.00
7888;BME280;3989;48.810;9.208;2024-01-30T18:40:06;100151.41;;;5.80;100.00
7888;BME280;3989;48.810;9.208;2024-01-30T18:45:12;100165.34;;;5.95;100.00
7888;BME280;3989;48.810;9.208;2024-01-30T18:47:59;100308.53;;;6.86;100.00
7888;BME280;3989;48.810;9.208;2024-01-30T18:50:27;100218.81;;;6.23;100.00
7888;BME280;3989;48.810;9.208;2024-01-30T18:52:55;100181.03;;;5.98;100.00
7888;BME280;3989;48.810;9.208;2024-01-30T18:55:26;100274.09;;;6.52;100.00
7888;BME280;3989;48.810;9.208;2024-01-30T18:57:53;100160.00;;;5.83;100.00
7888;BME280;3989;48.810;9.208;2024-01-30T19:00:25;100172.91;;;5.88;100.00
7888;BME280;3989;48.810;9.208;2024-01-30T19:02:55;100195.84;;;6.00;100.00
7888;BME280;3989;48.810;9.208;2024-01-30T19:05:24;100343.31;;;6.95;100.00
7888;BME280;3989;48.810;9.208;2024-01-30T19:07:52;100277.69;;;6.51;100.00
7888;BME280;3989;48.810;9.208;2024-01-30T19:10:39;100161.16;;;5.79;100.00
7888;BME280;3989;48.810;9.208;2024-01-30T19:13:06;100290.00;;;6.52;100.00
7888;BME280;3989;48.810;9.208;2024-01-30T19:15:36;100149.25;;;5.85;100.00
7888;BME280;3989;48.810;9.208;2024-01-30T19:18:25;100224.75;;;6.38;100.00
7888;BME280;3989;48.810;9.208;2024-01-30T19:20:55;100207.28;;;6.36;100.00
7888;BME280;3989;48.810;9.208;2024-01-30T19:23:25;100255.66;;;6.61;100.00
7888;BME280;3989;48.810;9.208;2024-01-30T19:25:56;100326.16;;;6.99;100.00
7888;BME280;3989;48.810;9.208;2024-01-30T19:28:27;100226.06;;;6.44;100.00
7888;BME280;3989;48.810;9.208;2024-01-30T19:30:56;100113.94;;;5.73;100.00
7888;BME280;3989;48.810;9.208;2024-01-30T19:33:27;100159.84;;;5.98;100.00
7888;BME280;3989;48.810;9.208;2024-01-30T19:35:58;100143.09;;;5.97;100.00
7888;BME280;3989;48.810;9.208;2024-01-30T19:38:27;100240.81;;;6.48;100.00
7888;BME280;3989;48.810;9.208;2024-01-30T19:41:10;100319.66;;;7.03;100.00
7888;BME280;3989;48.810;9.208;2024-01-30T19:43:40;100173.84;;;6.22;100.00
7888;BME280;3989;48.810;9.208;2024-01-30T19:46:16;100288.50;;;6.82;100.00
7888;BME280;3989;48.810;9.208;2024-01-30T19:48:45;100246.03;;;6.71;100.00
7888;BME280;3989;48.810;9.208;2024-01-30T19:51:13;100221.56;;;6.68;100.00
7888;BME280;3989;48.810;9.208;2024-01-30T19:53:42;100211.75;;;6.57;100.00
7888;BME280;3989;48.810;9.208;2024-01-30T19:56:13;100283.44;;;6.91;100.00
7888;BME280;3989;48.810;9.208;2024-01-30T19:58:44;100312.19;;;7.19;100.00
7888;BME280;3989;48.810;9.208;2024-01-30T20:01:18;100319.44;;;7.17;100.00
7888;BME280;3989;48.810;9.208;2024-01-30T20:03:47;100147.09;;;6.14;100.00
7888;BME280;3989;48.810;9.208;2024-01-30T20:06:30;100317.59;;;7.17;100.00
7888;BME280;3989;48.810;9.208;2024-01-30T20:08:59;100371.34;;;7.32;100.00
7888;BME280;3989;48.810;9.208;2024-01-30T20:11:28;100272.47;;;6.84;100.00
7888;BME280;3989;48.810;9.208;2024-01-30T20:13:57;100363.47;;;7.30;100.00
7888;BME280;3989;48.810;9.208;2024-01-30T20:16:39;100249.13;;;6.54;100.00
7888;BME280;3989;48.810;9.208;2024-01-30T20:19:12;100147.22;;;5.77;100.00
7888;BME280;3989;48.810;9.208;2024-01-30T20:21:45;100359.94;;;6.97;100.00
7888;BME280;3989;48.810;9.208;2024-01-30T20:24:14;100288.31;;;6.51;100.00
7888;BME280;3989;48.810;9.208;2024-01-30T20:26:44;100223.22;;;6.01;100.00
7888;BME280;3989;48.810;9.208;2024-01-30T20:29:13;100300.09;;;6.36;100.00
7888;BME280;3989;48.810;9.208;2024-01-30T20:31:47;100269.59;;;6.06;100.00
7888;BME280;3989;48.810;9.208;2024-01-30T20:34:15;100306.50;;;6.20;100.00
7888;BME280;3989;48.810;9.208;2024-01-30T20:36:43;100373.09;;;6.63;100.00
7888;BME280;3989;48.810;9.208;2024-01-30T20:39:14;100365.91;;;6.42;100.00
7888;BME280;3989;48.810;9.208;2024-01-30T20:41:43;100285.56;;;5.94;100.00
7888;BME280;3989;48.810;9.208;2024-01-30T20:44:11;100177.72;;;5.36;100.00
7888;BME280;3989;48.810;9.208;2024-01-30T20:46:42;100229.00;;;5.58;100.00
7888;BME280;3989;48.810;9.208;2024-01-30T20:49:11;100262.22;;;5.62;100.00
7888;BME280;3989;48.810;9.208;2024-01-30T20:51:39;100325.72;;;6.00;100.00
7888;BME280;3989;48.810;9.208;2024-01-30T20:54:08;100380.31;;;6.26;100.00
7888;BME280;3989;48.810;9.208;2024-01-30T20:56:37;100276.69;;;5.46;100.00
7888;BME280;3989;48.810;9.208;2024-01-30T20:59:08;100251.06;;;5.10;100.00
7888;BME280;3989;48.810;9.208;2024-01-30T21:01:38;100298.53;;;5.24;100.00
7888;BME280;3989;48.810;9.208;2024-01-30T21:04:12;100196.50;;;4.58;100.00
7888;BME280;3989;48.810;9.208;2024-01-30T21:06:43;100283.72;;;5.21;100.00
7888;BME280;3989;48.810;9.208;2024-01-30T21:09:10;100215.44;;;4.78;100.00
7888;BME280;3989;48.810;9.208;2024-01-30T21:11:39;100408.94;;;5.98;100.00
7888;BME280;3989;48.810;9.208;2024-01-30T21:14:10;100240.28;;;5.00;100.00
7888;BME280;3989;48.810;9.208;2024-01-30T21:16:38;100256.59;;;5.30;100.00
7888;BME280;3989;48.810;9.208;2024-01-30T21:24:28;100215.00;;;5.33;100.00
7888;BME280;3989;48.810;9.208;2024-01-30T21:27:03;100341.56;;;6.13;100.00
7888;BME280;3989;48.810;9.208;2024-01-30T21:29:49;100224.47;;;5.48;100.00
7888;BME280;3989;48.810;9.208;2024-01-30T21:32:32;100217.38;;;5.48;100.00
7888;BME280;3989;48.810;9.208;2024-01-30T21:35:02;100249.38;;;5.69;100.00
7888;BME280;3989;48.810;9.208;2024-01-30T21:37:43;100268.63;;;5.83;100.00
7888;BME280;3989;48.810;9.208;2024-01-30T21:40:30;100392.66;;;6.62;100.00
7888;BME280;3989;48.810;9.208;2024-01-30T21:42:58;100396.91;;;6.76;100.00
7888;BME280;3989;48.810;9.208;2024-01-30T21:45:27;100303.84;;;6.20;100.00
7888;BME280;3989;48.810;9.208;2024-01-30T21:47:55;100381.84;;;6.76;100.00
7888;BME280;3989;48.810;9.208;2024-01-30T21:50:23;100291.81;;;6.16;100.00
7888;BME280;3989;48.810;9.208;2024-01-30T21:52:50;100402.50;;;6.84;100.00
7888;BME280;3989;48.810;9.208;2024-01-30T21:55:18;100287.69;;;6.12;100.00
7888;BME280;3989;48.810;9.208;2024-01-30T22:04:18;100241.19;;;5.72;100.00
7888;BME280;3989;48.810;9.208;2024-01-30T22:07:06;100212.53;;;5.66;100.00
7888;BME280;3989;48.810;9.208;2024-01-30T22:17:50;100365.94;;;6.53;100.00
7888;BME280;3989;48.810;9.208;2024-01-30T22:20:19;100269.47;;;5.84;100.00
7888;BME280;3989;48.810;9.208;2024-01-30T22:22:46;100305.16;;;6.15;100.00
7888;BME280;3989;48.810;9.208;2024-01-30T22:25:13;100188.19;;;5.37;100.00
7888;BME280;3989;48.810;9.208;2024-01-30T22:27:40;100319.19;;;6.17;100.00
7888;BME280;3989;48.810;9.208;2024-01-30T22:30:07;100327.13;;;6.17;100.00
7888;BME280;3989;48.810;9.208;2024-01-30T22:32:34;100431.63;;;6.73;100.00
7888;BME280;3989;48.810;9.208;2024-01-30T22:35:02;100263.59;;;5.68;100.00
7888;BME280;3989;48.810;9.208;2024-01-30T22:37:36;100304.84;;;5.96;100.00
7888;BME280;3989;48.810;9.208;2024-01-30T22:40:05;100429.03;;;6.60;100.00
7888;BME280;3989;48.810;9.208;2024-01-30T22:42:33;100393.22;;;6.31;100.00
7888;BME280;3989;48.810;9.208;2024-01-30T22:45:00;100425.28;;;6.52;100.00
7888;BME280;3989;48.810;9.208;2024-01-30T22:47:27;100454.50;;;6.63;100.00
7888;BME280;3989;48.810;9.208;2024-01-30T22:49:54;100440.56;;;6.48;100.00
7888;BME280;3989;48.810;9.208;2024-01-30T22:52:21;100461.50;;;6.64;100.00
7888;BME280;3989;48.810;9.208;2024-01-30T22:54:49;100286.91;;;5.63;100.00
7888;BME280;3989;48.810;9.208;2024-01-30T22:57:16;100415.13;;;6.46;100.00
7888;BME280;3989;48.810;9.208;2024-01-30T22:59:43;100466.34;;;6.70;100.00
7888;BME280;3989;48.810;9.208;2024-01-30T23:02:10;100391.81;;;6.38;100.00
7888;BME280;3989;48.810;9.208;2024-01-30T23:04:37;100381.66;;;6.32;100.00
7888;BME280;3989;48.810;9.208;2024-01-30T23:07:04;100282.22;;;5.66;100.00
7888;BME280;3989;48.810;9.208;2024-01-30T23:09:31;100422.88;;;6.60;100.00
7888;BME280;3989;48.810;9.208;2024-01-30T23:11:59;100455.44;;;6.85;100.00
7888;BME280;3989;48.810;9.208;2024-01-30T23:14:26;100246.00;;;5.67;100.00
7888;BME280;3989;48.810;9.208;2024-01-30T23:16:53;100261.50;;;5.60;100.00
7888;BME280;3989;48.810;9.208;2024-01-30T23:19:20;100331.81;;;6.13;100.00
7888;BME280;3989;48.810;9.208;2024-01-30T23:21:47;100329.59;;;6.07;100.00
7888;BME280;3989;48.810;9.208;2024-01-30T23:24:16;100436.59;;;6.77;100.00
7888;BME280;3989;48.810;9.208;2024-01-30T23:26:43;100455.22;;;6.88;100.00
7888;BME280;3989;48.810;9.208;2024-01-30T23:29:12;100255.75;;;5.66;100.00
7888;BME280;3989;48.810;9.208;2024-01-30T23:31:40;100336.25;;;6.13;100.00